Terminal Aerodrome Forecast
Issued by NWS Albany, NY

Home | Current Version | Previous Version | Text Only | Print | Product List | Glossary On
Versions: 1 2 3 4 5 6 7 8 9 10 11 12 13 14 15 16 17 18
000
FTUS41 KALY 240524
TAFGFL
TAF
KGFL 240524Z 2406/2506 VRB03KT P6SM BKN110
     FM241400 18008KT 1SM -SN BR BKN025 OVC040
     FM241600 18009KT 2SM -FZRASNPL BR BKN015 OVC040
     FM241800 17009KT 6SM -FZRA BR OVC020
     FM242000 18007KT 6SM -RA BR OVC020
     FM250000 19005KT P6SM OVC003 PROB30 2503/2506 2SM -RA BR
      OVC003=

USA.gov is the U.S. government's official web portal to all federal, state and local government web resources and services.